CheckWX is a tool to help pilots better visualize weather data.  It is not intended as a substitute for an official pre-flight weather briefing.

18:42:40 UTC

EGKB METAR
London Biggin Hill Airport
London, United Kingdom
Current

23 mins ago

EGKB 121820Z 17013KT CAVOK 19/09 Q1027
Observed
Jul-12 @ 18:20 UTC
Wind
  • 170° at 13 KTS
Visibility
10,000+ meters
Flight Rules
VFR
Cloud Levels
  • Clear skies
Temperature
19°C / 66°F
Dewpoint
C / 48°F
Humidity
52%
Altimeter
30.32" Hg
Pressure
1026.92 hPa
Previous

53 mins ago

EGKB 121750Z 16011KT 110V210 CAVOK 19/09 Q1027
Observed
Jul-12 @ 17:50 UTC
Wind
  • 160° at 11 KTS
Visibility
10,000+ meters
Flight Rules
VFR
Cloud Levels
  • Clear skies
Temperature
19°C / 66°F
Dewpoint
C / 48°F
Humidity
52%
Altimeter
30.32" Hg
Pressure
1026.92 hPa
Previous

1 hour ago

EGKB 121720Z 12004KT 070V160 CAVOK 21/06 Q1027
Observed
Jul-12 @ 17:20 UTC
Wind
  • 120° at 4 KTS
Visibility
10,000+ meters
Flight Rules
VFR
Cloud Levels
  • Clear skies
Temperature
21°C / 70°F
Dewpoint
C / 43°F
Humidity
38%
Altimeter
30.32" Hg
Pressure
1026.92 hPa